sensor_id;sensor_type;location;lat;lon;timestamp;P1;durP1;ratioP1;P2;durP2;ratioP2
4700;SDS011;8724;51.272;6.554;2023-08-06T00:00:14;2.40;;;2.20;;
4700;SDS011;8724;51.272;6.554;2023-08-06T00:02:44;5.13;;;2.23;;
4700;SDS011;8724;51.272;6.554;2023-08-06T00:05:12;2.67;;;2.43;;
4700;SDS011;8724;51.272;6.554;2023-08-06T00:07:44;2.30;;;2.20;;
4700;SDS011;8724;51.272;6.554;2023-08-06T00:10:13;3.13;;;2.13;;
4700;SDS011;8724;51.272;6.554;2023-08-06T00:12:42;3.27;;;2.33;;
4700;SDS011;8724;51.272;6.554;2023-08-06T00:15:12;2.83;;;2.40;;
4700;SDS011;8724;51.272;6.554;2023-08-06T00:17:41;2.20;;;2.07;;
4700;SDS011;8724;51.272;6.554;2023-08-06T00:20:10;2.20;;;1.97;;
4700;SDS011;8724;51.272;6.554;2023-08-06T00:22:38;2.33;;;2.23;;
4700;SDS011;8724;51.272;6.554;2023-08-06T00:25:07;2.07;;;1.90;;
4700;SDS011;8724;51.272;6.554;2023-08-06T00:27:36;2.40;;;1.80;;
4700;SDS011;8724;51.272;6.554;2023-08-06T00:30:05;1.80;;;1.70;;
4700;SDS011;8724;51.272;6.554;2023-08-06T00:32:36;3.07;;;1.90;;
4700;SDS011;8724;51.272;6.554;2023-08-06T00:35:04;1.80;;;1.70;;
4700;SDS011;8724;51.272;6.554;2023-08-06T00:37:33;2.30;;;2.20;;
4700;SDS011;8724;51.272;6.554;2023-08-06T00:40:02;2.10;;;1.90;;
4700;SDS011;8724;51.272;6.554;2023-08-06T00:42:31;4.43;;;2.20;;
4700;SDS011;8724;51.272;6.554;2023-08-06T00:45:01;5.87;;;1.70;;
4700;SDS011;8724;51.272;6.554;2023-08-06T00:47:30;2.00;;;1.90;;
4700;SDS011;8724;51.272;6.554;2023-08-06T00:50:00;2.07;;;1.83;;
4700;SDS011;8724;51.272;6.554;2023-08-06T00:52:29;3.43;;;1.80;;
4700;SDS011;8724;51.272;6.554;2023-08-06T00:54:58;2.60;;;2.40;;
4700;SDS011;8724;51.272;6.554;2023-08-06T00:57:27;3.67;;;2.40;;
4700;SDS011;8724;51.272;6.554;2023-08-06T00:59:55;3.10;;;2.13;;
4700;SDS011;8724;51.272;6.554;2023-08-06T01:02:24;4.10;;;1.90;;
4700;SDS011;8724;51.272;6.554;2023-08-06T01:04:53;2.23;;;2.03;;
4700;SDS011;8724;51.272;6.554;2023-08-06T01:07:25;1.80;;;1.70;;
4700;SDS011;8724;51.272;6.554;2023-08-06T01:10:07;3.37;;;2.43;;
4700;SDS011;8724;51.272;6.554;2023-08-06T01:12:48;2.93;;;2.03;;
4700;SDS011;8724;51.272;6.554;2023-08-06T01:15:23;5.17;;;2.30;;
4700;SDS011;8724;51.272;6.554;2023-08-06T01:17:55;2.93;;;2.60;;
4700;SDS011;8724;51.272;6.554;2023-08-06T01:20:28;2.17;;;2.07;;
4700;SDS011;8724;51.272;6.554;2023-08-06T01:22:57;2.20;;;2.00;;
4700;SDS011;8724;51.272;6.554;2023-08-06T01:25:28;1.80;;;1.70;;
4700;SDS011;8724;51.272;6.554;2023-08-06T01:28:08;2.30;;;2.10;;
4700;SDS011;8724;51.272;6.554;2023-08-06T01:30:44;2.53;;;2.20;;
4700;SDS011;8724;51.272;6.554;2023-08-06T01:33:14;2.23;;;2.13;;
4700;SDS011;8724;51.272;6.554;2023-08-06T01:35:48;2.40;;;2.20;;
4700;SDS011;8724;51.272;6.554;2023-08-06T01:38:18;2.20;;;2.00;;
4700;SDS011;8724;51.272;6.554;2023-08-06T01:40:46;2.33;;;2.13;;
4700;SDS011;8724;51.272;6.554;2023-08-06T01:43:15;2.20;;;2.00;;
4700;SDS011;8724;51.272;6.554;2023-08-06T01:45:43;2.00;;;1.90;;
4700;SDS011;8724;51.272;6.554;2023-08-06T01:48:12;3.40;;;2.10;;
4700;SDS011;8724;51.272;6.554;2023-08-06T01:50:40;3.10;;;1.80;;
4700;SDS011;8724;51.272;6.554;2023-08-06T01:53:10;3.90;;;2.10;;
4700;SDS011;8724;51.272;6.554;2023-08-06T01:55:38;2.20;;;1.80;;
4700;SDS011;8724;51.272;6.554;2023-08-06T01:58:06;3.43;;;2.53;;
4700;SDS011;8724;51.272;6.554;2023-08-06T02:00:35;2.20;;;2.00;;
4700;SDS011;8724;51.272;6.554;2023-08-06T02:03:03;2.53;;;2.30;;
4700;SDS011;8724;51.272;6.554;2023-08-06T02:05:32;3.20;;;2.50;;
4700;SDS011;8724;51.272;6.554;2023-08-06T02:08:00;2.90;;;2.40;;
4700;SDS011;8724;51.272;6.554;2023-08-06T02:10:31;3.37;;;2.27;;
4700;SDS011;8724;51.272;6.554;2023-08-06T02:12:59;2.80;;;2.47;;
4700;SDS011;8724;51.272;6.554;2023-08-06T02:15:27;2.63;;;1.77;;
4700;SDS011;8724;51.272;6.554;2023-08-06T02:17:56;1.93;;;1.83;;
4700;SDS011;8724;51.272;6.554;2023-08-06T02:20:25;5.07;;;2.40;;
4700;SDS011;8724;51.272;6.554;2023-08-06T02:22:54;1.90;;;1.80;;
4700;SDS011;8724;51.272;6.554;2023-08-06T02:25:22;2.07;;;1.97;;
4700;SDS011;8724;51.272;6.554;2023-08-06T02:27:53;2.50;;;2.20;;
4700;SDS011;8724;51.272;6.554;2023-08-06T02:30:21;2.00;;;1.90;;
4700;SDS011;8724;51.272;6.554;2023-08-06T02:32:50;1.87;;;1.73;;
4700;SDS011;8724;51.272;6.554;2023-08-06T02:35:19;2.37;;;1.93;;
4700;SDS011;8724;51.272;6.554;2023-08-06T02:37:48;2.57;;;2.20;;
4700;SDS011;8724;51.272;6.554;2023-08-06T02:40:16;1.90;;;1.60;;
4700;SDS011;8724;51.272;6.554;2023-08-06T02:42:46;2.20;;;2.00;;
4700;SDS011;8724;51.272;6.554;2023-08-06T02:45:16;2.10;;;2.00;;
4700;SDS011;8724;51.272;6.554;2023-08-06T02:47:45;3.97;;;2.13;;
4700;SDS011;8724;51.272;6.554;2023-08-06T02:50:17;2.50;;;2.17;;
4700;SDS011;8724;51.272;6.554;2023-08-06T02:52:45;1.77;;;1.67;;
4700;SDS011;8724;51.272;6.554;2023-08-06T02:55:14;2.63;;;1.80;;
4700;SDS011;8724;51.272;6.554;2023-08-06T02:57:45;2.40;;;1.83;;
4700;SDS011;8724;51.272;6.554;2023-08-06T03:00:14;3.87;;;2.00;;
4700;SDS011;8724;51.272;6.554;2023-08-06T03:02:44;2.30;;;2.10;;
4700;SDS011;8724;51.272;6.554;2023-08-06T03:05:29;2.10;;;2.00;;
4700;SDS011;8724;51.272;6.554;2023-08-06T03:07:58;2.00;;;1.90;;
4700;SDS011;8724;51.272;6.554;2023-08-06T03:10:29;1.90;;;1.80;;
4700;SDS011;8724;51.272;6.554;2023-08-06T03:13:01;1.87;;;1.77;;
4700;SDS011;8724;51.272;6.554;2023-08-06T03:15:29;2.07;;;1.87;;
4700;SDS011;8724;51.272;6.554;2023-08-06T03:17:59;2.93;;;2.23;;
4700;SDS011;8724;51.272;6.554;2023-08-06T03:20:28;2.97;;;1.83;;
4700;SDS011;8724;51.272;6.554;2023-08-06T03:22:56;2.30;;;2.10;;
4700;SDS011;8724;51.272;6.554;2023-08-06T03:25:27;5.20;;;2.20;;
4700;SDS011;8724;51.272;6.554;2023-08-06T03:27:55;1.83;;;1.67;;
4700;SDS011;8724;51.272;6.554;2023-08-06T03:30:23;2.27;;;2.07;;
4700;SDS011;8724;51.272;6.554;2023-08-06T03:32:53;3.10;;;2.30;;
4700;SDS011;8724;51.272;6.554;2023-08-06T03:35:23;2.17;;;2.07;;
4700;SDS011;8724;51.272;6.554;2023-08-06T03:37:52;2.50;;;2.23;;
4700;SDS011;8724;51.272;6.554;2023-08-06T03:40:21;2.90;;;2.20;;
4700;SDS011;8724;51.272;6.554;2023-08-06T03:42:50;3.33;;;2.17;;
4700;SDS011;8724;51.272;6.554;2023-08-06T03:45:18;2.30;;;2.10;;
4700;SDS011;8724;51.272;6.554;2023-08-06T03:47:50;2.90;;;2.07;;
4700;SDS011;8724;51.272;6.554;2023-08-06T03:50:18;5.13;;;2.20;;
4700;SDS011;8724;51.272;6.554;2023-08-06T03:52:49;2.33;;;1.80;;
4700;SDS011;8724;51.272;6.554;2023-08-06T03:55:17;2.40;;;2.20;;
4700;SDS011;8724;51.272;6.554;2023-08-06T03:57:46;2.50;;;2.30;;
4700;SDS011;8724;51.272;6.554;2023-08-06T04:00:15;1.90;;;1.80;;
4700;SDS011;8724;51.272;6.554;2023-08-06T04:02:50;1.80;;;1.70;;
4700;SDS011;8724;51.272;6.554;2023-08-06T04:05:24;3.03;;;1.73;;
4700;SDS011;8724;51.272;6.554;2023-08-06T04:08:00;2.13;;;1.93;;
4700;SDS011;8724;51.272;6.554;2023-08-06T04:10:40;2.20;;;2.00;;
4700;SDS011;8724;51.272;6.554;2023-08-06T04:13:13;2.47;;;2.13;;
4700;SDS011;8724;51.272;6.554;2023-08-06T04:15:48;3.83;;;1.80;;
4700;SDS011;8724;51.272;6.554;2023-08-06T04:18:18;3.57;;;1.83;;
4700;SDS011;8724;51.272;6.554;2023-08-06T04:20:55;2.90;;;2.00;;
4700;SDS011;8724;51.272;6.554;2023-08-06T04:23:38;2.07;;;1.87;;
4700;SDS011;8724;51.272;6.554;2023-08-06T04:26:10;2.00;;;1.90;;
4700;SDS011;8724;51.272;6.554;2023-08-06T04:28:41;2.93;;;2.07;;
4700;SDS011;8724;51.272;6.554;2023-08-06T04:31:15;3.60;;;2.30;;
4700;SDS011;8724;51.272;6.554;2023-08-06T04:33:45;1.77;;;1.67;;
4700;SDS011;8724;51.272;6.554;2023-08-06T04:36:19;3.03;;;2.10;;
4700;SDS011;8724;51.272;6.554;2023-08-06T04:39:03;2.30;;;1.93;;
4700;SDS011;8724;51.272;6.554;2023-08-06T04:41:37;2.13;;;1.93;;
4700;SDS011;8724;51.272;6.554;2023-08-06T04:44:32;2.37;;;2.17;;
4700;SDS011;8724;51.272;6.554;2023-08-06T04:47:05;3.07;;;2.50;;
4700;SDS011;8724;51.272;6.554;2023-08-06T04:49:46;2.27;;;2.07;;
4700;SDS011;8724;51.272;6.554;2023-08-06T04:52:18;4.10;;;3.70;;
4700;SDS011;8724;51.272;6.554;2023-08-06T04:54:50;3.57;;;2.90;;
4700;SDS011;8724;51.272;6.554;2023-08-06T04:57:28;2.80;;;2.10;;
4700;SDS011;8724;51.272;6.554;2023-08-06T05:00:04;3.23;;;2.40;;
4700;SDS011;8724;51.272;6.554;2023-08-06T05:03:10;2.53;;;2.33;;
4700;SDS011;8724;51.272;6.554;2023-08-06T05:05:47;2.70;;;2.50;;
4700;SDS011;8724;51.272;6.554;2023-08-06T05:08:33;2.70;;;2.50;;
4700;SDS011;8724;51.272;6.554;2023-08-06T05:11:20;3.27;;;2.97;;
4700;SDS011;8724;51.272;6.554;2023-08-06T05:13:51;3.33;;;2.37;;
4700;SDS011;8724;51.272;6.554;2023-08-06T05:16:41;2.40;;;2.20;;
4700;SDS011;8724;51.272;6.554;2023-08-06T05:19:12;3.13;;;2.87;;
4700;SDS011;8724;51.272;6.554;2023-08-06T05:21:48;3.23;;;2.13;;
4700;SDS011;8724;51.272;6.554;2023-08-06T05:24:21;3.40;;;1.90;;
4700;SDS011;8724;51.272;6.554;2023-08-06T05:26:58;2.50;;;1.77;;
4700;SDS011;8724;51.272;6.554;2023-08-06T05:29:30;2.47;;;1.97;;
4700;SDS011;8724;51.272;6.554;2023-08-06T05:32:19;2.10;;;1.90;;
4700;SDS011;8724;51.272;6.554;2023-08-06T05:34:48;1.70;;;1.60;;
4700;SDS011;8724;51.272;6.554;2023-08-06T05:37:31;2.10;;;2.00;;
4700;SDS011;8724;51.272;6.554;2023-08-06T05:40:06;1.90;;;1.53;;
4700;SDS011;8724;51.272;6.554;2023-08-06T05:42:37;2.87;;;1.87;;
4700;SDS011;8724;51.272;6.554;2023-08-06T05:45:07;2.10;;;1.80;;
4700;SDS011;8724;51.272;6.554;2023-08-06T05:47:41;1.73;;;1.63;;
4700;SDS011;8724;51.272;6.554;2023-08-06T05:50:10;4.20;;;1.80;;
4700;SDS011;8724;51.272;6.554;2023-08-06T05:52:39;1.80;;;1.67;;
4700;SDS011;8724;51.272;6.554;2023-08-06T05:55:13;2.57;;;1.60;;
4700;SDS011;8724;51.272;6.554;2023-08-06T05:57:43;1.60;;;1.50;;
4700;SDS011;8724;51.272;6.554;2023-08-06T06:00:11;2.70;;;1.60;;
4700;SDS011;8724;51.272;6.554;2023-08-06T06:02:40;1.50;;;1.40;;
4700;SDS011;8724;51.272;6.554;2023-08-06T06:05:08;2.00;;;1.47;;
4700;SDS011;8724;51.272;6.554;2023-08-06T06:07:37;1.83;;;1.40;;
4700;SDS011;8724;51.272;6.554;2023-08-06T06:10:06;1.10;;;1.07;;
4700;SDS011;8724;51.272;6.554;2023-08-06T06:12:35;1.33;;;1.23;;
4700;SDS011;8724;51.272;6.554;2023-08-06T06:15:07;1.63;;;1.47;;
4700;SDS011;8724;51.272;6.554;2023-08-06T06:17:36;2.50;;;1.57;;
4700;SDS011;8724;51.272;6.554;2023-08-06T06:20:06;2.33;;;1.53;;
4700;SDS011;8724;51.272;6.554;2023-08-06T06:22:35;1.77;;;1.20;;
4700;SDS011;8724;51.272;6.554;2023-08-06T06:25:04;2.30;;;1.50;;
4700;SDS011;8724;51.272;6.554;2023-08-06T06:27:34;1.60;;;1.50;;
4700;SDS011;8724;51.272;6.554;2023-08-06T06:30:07;1.63;;;1.47;;
4700;SDS011;8724;51.272;6.554;2023-08-06T06:32:38;1.40;;;1.30;;
4700;SDS011;8724;51.272;6.554;2023-08-06T06:35:08;2.67;;;1.80;;
4700;SDS011;8724;51.272;6.554;2023-08-06T06:37:36;1.93;;;1.50;;
4700;SDS011;8724;51.272;6.554;2023-08-06T06:40:05;1.43;;;1.33;;
4700;SDS011;8724;51.272;6.554;2023-08-06T06:42:35;2.50;;;1.50;;
4700;SDS011;8724;51.272;6.554;2023-08-06T06:45:09;1.47;;;1.37;;
4700;SDS011;8724;51.272;6.554;2023-08-06T06:47:37;1.60;;;1.50;;
4700;SDS011;8724;51.272;6.554;2023-08-06T06:50:06;1.60;;;1.50;;
4700;SDS011;8724;51.272;6.554;2023-08-06T06:52:35;2.40;;;1.50;;
4700;SDS011;8724;51.272;6.554;2023-08-06T06:55:04;1.90;;;1.80;;
4700;SDS011;8724;51.272;6.554;2023-08-06T06:57:33;1.70;;;1.50;;
4700;SDS011;8724;51.272;6.554;2023-08-06T07:00:01;1.63;;;1.50;;
4700;SDS011;8724;51.272;6.554;2023-08-06T07:02:33;4.10;;;1.60;;
4700;SDS011;8724;51.272;6.554;2023-08-06T07:05:02;1.90;;;1.70;;
4700;SDS011;8724;51.272;6.554;2023-08-06T07:07:31;2.17;;;1.60;;
4700;SDS011;8724;51.272;6.554;2023-08-06T07:09:59;2.07;;;1.80;;
4700;SDS011;8724;51.272;6.554;2023-08-06T07:12:28;1.63;;;1.53;;
4700;SDS011;8724;51.272;6.554;2023-08-06T07:14:56;1.90;;;1.47;;
4700;SDS011;8724;51.272;6.554;2023-08-06T07:17:24;3.10;;;2.17;;
4700;SDS011;8724;51.272;6.554;2023-08-06T07:19:55;1.83;;;1.73;;
4700;SDS011;8724;51.272;6.554;2023-08-06T07:22:23;4.20;;;2.70;;
4700;SDS011;8724;51.272;6.554;2023-08-06T07:24:52;1.87;;;1.77;;
4700;SDS011;8724;51.272;6.554;2023-08-06T07:27:20;2.00;;;1.77;;
4700;SDS011;8724;51.272;6.554;2023-08-06T07:29:49;2.93;;;1.97;;
4700;SDS011;8724;51.272;6.554;2023-08-06T07:32:17;2.80;;;1.80;;
4700;SDS011;8724;51.272;6.554;2023-08-06T07:34:46;2.10;;;1.70;;
4700;SDS011;8724;51.272;6.554;2023-08-06T07:37:17;1.97;;;1.87;;
4700;SDS011;8724;51.272;6.554;2023-08-06T07:39:46;2.40;;;2.30;;
4700;SDS011;8724;51.272;6.554;2023-08-06T07:42:14;1.93;;;1.83;;
4700;SDS011;8724;51.272;6.554;2023-08-06T07:44:43;2.67;;;2.13;;
4700;SDS011;8724;51.272;6.554;2023-08-06T07:47:11;2.53;;;2.23;;
4700;SDS011;8724;51.272;6.554;2023-08-06T07:49:39;1.93;;;1.70;;
4700;SDS011;8724;51.272;6.554;2023-08-06T07:52:09;2.00;;;1.83;;
4700;SDS011;8724;51.272;6.554;2023-08-06T07:54:40;2.40;;;2.20;;
4700;SDS011;8724;51.272;6.554;2023-08-06T07:57:08;1.40;;;1.30;;
4700;SDS011;8724;51.272;6.554;2023-08-06T07:59:37;4.00;;;2.10;;
4700;SDS011;8724;51.272;6.554;2023-08-06T08:02:06;2.00;;;1.80;;
4700;SDS011;8724;51.272;6.554;2023-08-06T08:04:34;2.30;;;2.10;;
4700;SDS011;8724;51.272;6.554;2023-08-06T08:07:03;6.27;;;3.07;;
4700;SDS011;8724;51.272;6.554;2023-08-06T08:09:32;2.40;;;2.20;;
4700;SDS011;8724;51.272;6.554;2023-08-06T08:12:03;2.13;;;1.90;;
4700;SDS011;8724;51.272;6.554;2023-08-06T08:14:32;3.27;;;2.07;;
4700;SDS011;8724;51.272;6.554;2023-08-06T08:17:03;2.70;;;1.90;;
4700;SDS011;8724;51.272;6.554;2023-08-06T08:19:32;1.90;;;1.80;;
4700;SDS011;8724;51.272;6.554;2023-08-06T08:22:00;2.50;;;2.20;;
4700;SDS011;8724;51.272;6.554;2023-08-06T08:24:29;2.23;;;2.03;;
4700;SDS011;8724;51.272;6.554;2023-08-06T08:26:58;3.83;;;1.87;;
4700;SDS011;8724;51.272;6.554;2023-08-06T08:29:28;2.50;;;1.93;;
4700;SDS011;8724;51.272;6.554;2023-08-06T08:31:56;2.70;;;1.70;;
4700;SDS011;8724;51.272;6.554;2023-08-06T08:34:25;1.93;;;1.60;;
4700;SDS011;8724;51.272;6.554;2023-08-06T08:36:53;2.40;;;1.77;;
4700;SDS011;8724;51.272;6.554;2023-08-06T08:39:22;2.47;;;2.27;;
4700;SDS011;8724;51.272;6.554;2023-08-06T08:41:50;4.50;;;2.27;;
4700;SDS011;8724;51.272;6.554;2023-08-06T08:44:20;3.40;;;2.43;;
4700;SDS011;8724;51.272;6.554;2023-08-06T08:46:51;3.20;;;2.60;;
4700;SDS011;8724;51.272;6.554;2023-08-06T08:49:20;3.10;;;2.30;;
4700;SDS011;8724;51.272;6.554;2023-08-06T08:51:51;2.30;;;1.57;;
4700;SDS011;8724;51.272;6.554;2023-08-06T08:54:21;4.07;;;2.00;;
4700;SDS011;8724;51.272;6.554;2023-08-06T08:56:51;2.13;;;1.70;;
4700;SDS011;8724;51.272;6.554;2023-08-06T08:59:21;3.20;;;1.80;;
4700;SDS011;8724;51.272;6.554;2023-08-06T09:01:51;2.20;;;1.47;;
4700;SDS011;8724;51.272;6.554;2023-08-06T09:04:21;1.83;;;1.70;;
4700;SDS011;8724;51.272;6.554;2023-08-06T09:06:51;2.00;;;1.50;;
4700;SDS011;8724;51.272;6.554;2023-08-06T09:09:25;1.93;;;1.73;;
4700;SDS011;8724;51.272;6.554;2023-08-06T09:11:58;2.70;;;1.70;;
4700;SDS011;8724;51.272;6.554;2023-08-06T09:14:32;1.77;;;1.60;;
4700;SDS011;8724;51.272;6.554;2023-08-06T09:17:02;3.63;;;2.40;;
4700;SDS011;8724;51.272;6.554;2023-08-06T09:19:32;2.07;;;1.97;;
4700;SDS011;8724;51.272;6.554;2023-08-06T09:22:01;1.60;;;1.50;;
4700;SDS011;8724;51.272;6.554;2023-08-06T09:24:30;4.13;;;2.00;;
4700;SDS011;8724;51.272;6.554;2023-08-06T09:26:58;2.87;;;2.57;;
4700;SDS011;8724;51.272;6.554;2023-08-06T09:29:31;2.90;;;2.47;;
4700;SDS011;8724;51.272;6.554;2023-08-06T09:32:02;4.40;;;2.17;;
4700;SDS011;8724;51.272;6.554;2023-08-06T09:34:30;3.27;;;1.87;;
4700;SDS011;8724;51.272;6.554;2023-08-06T09:36:59;2.20;;;1.37;;
4700;SDS011;8724;51.272;6.554;2023-08-06T09:39:28;1.73;;;1.47;;
4700;SDS011;8724;51.272;6.554;2023-08-06T09:41:59;2.37;;;1.60;;
4700;SDS011;8724;51.272;6.554;2023-08-06T09:44:31;3.03;;;1.40;;
4700;SDS011;8724;51.272;6.554;2023-08-06T09:47:02;2.30;;;1.40;;
4700;SDS011;8724;51.272;6.554;2023-08-06T09:49:40;2.70;;;1.40;;
4700;SDS011;8724;51.272;6.554;2023-08-06T09:52:10;1.97;;;1.20;;
4700;SDS011;8724;51.272;6.554;2023-08-06T09:54:40;1.90;;;1.30;;
4700;SDS011;8724;51.272;6.554;2023-08-06T09:57:09;1.57;;;1.47;;
4700;SDS011;8724;51.272;6.554;2023-08-06T09:59:41;1.40;;;1.30;;
4700;SDS011;8724;51.272;6.554;2023-08-06T10:02:13;1.47;;;1.10;;
4700;SDS011;8724;51.272;6.554;2023-08-06T10:04:42;1.20;;;1.10;;
4700;SDS011;8724;51.272;6.554;2023-08-06T10:07:21;1.03;;;0.80;;
4700;SDS011;8724;51.272;6.554;2023-08-06T10:09:51;1.60;;;1.00;;
4700;SDS011;8724;51.272;6.554;2023-08-06T10:12:20;1.00;;;0.80;;
4700;SDS011;8724;51.272;6.554;2023-08-06T10:14:49;1.30;;;1.20;;
4700;SDS011;8724;51.272;6.554;2023-08-06T10:17:20;0.80;;;0.80;;
4700;SDS011;8724;51.272;6.554;2023-08-06T10:20:03;1.20;;;0.70;;
4700;SDS011;8724;51.272;6.554;2023-08-06T10:22:34;3.03;;;0.90;;
4700;SDS011;8724;51.272;6.554;2023-08-06T10:25:03;0.80;;;0.80;;
4700;SDS011;8724;51.272;6.554;2023-08-06T10:27:33;0.70;;;0.70;;
4700;SDS011;8724;51.272;6.554;2023-08-06T10:30:20;0.70;;;0.70;;
4700;SDS011;8724;51.272;6.554;2023-08-06T10:32:51;1.27;;;1.10;;
4700;SDS011;8724;51.272;6.554;2023-08-06T10:35:30;1.20;;;1.10;;
4700;SDS011;8724;51.272;6.554;2023-08-06T10:38:03;1.30;;;1.10;;
4700;SDS011;8724;51.272;6.554;2023-08-06T10:40:33;1.47;;;1.37;;
4700;SDS011;8724;51.272;6.554;2023-08-06T10:43:02;1.30;;;1.20;;
4700;SDS011;8724;51.272;6.554;2023-08-06T10:45:36;1.53;;;1.43;;
4700;SDS011;8724;51.272;6.554;2023-08-06T10:48:07;1.77;;;1.67;;
4700;SDS011;8724;51.272;6.554;2023-08-06T10:50:36;1.63;;;1.43;;
4700;SDS011;8724;51.272;6.554;2023-08-06T10:53:04;1.70;;;1.57;;
4700;SDS011;8724;51.272;6.554;2023-08-06T10:55:34;2.30;;;2.07;;
4700;SDS011;8724;51.272;6.554;2023-08-06T10:58:05;2.60;;;1.80;;
4700;SDS011;8724;51.272;6.554;2023-08-06T11:00:33;1.87;;;1.77;;
4700;SDS011;8724;51.272;6.554;2023-08-06T11:03:03;1.10;;;1.07;;
4700;SDS011;8724;51.272;6.554;2023-08-06T11:05:33;1.53;;;1.10;;
4700;SDS011;8724;51.272;6.554;2023-08-06T11:08:02;1.70;;;1.60;;
4700;SDS011;8724;51.272;6.554;2023-08-06T11:10:32;1.13;;;1.10;;
4700;SDS011;8724;51.272;6.554;2023-08-06T11:13:01;1.60;;;1.50;;
4700;SDS011;8724;51.272;6.554;2023-08-06T11:15:31;1.33;;;1.23;;
4700;SDS011;8724;51.272;6.554;2023-08-06T11:17:59;2.07;;;1.83;;
4700;SDS011;8724;51.272;6.554;2023-08-06T11:20:29;3.20;;;2.57;;
4700;SDS011;8724;51.272;6.554;2023-08-06T11:22:59;2.97;;;2.67;;
4700;SDS011;8724;51.272;6.554;2023-08-06T11:25:29;2.40;;;2.20;;
4700;SDS011;8724;51.272;6.554;2023-08-06T11:27:57;3.10;;;2.40;;
4700;SDS011;8724;51.272;6.554;2023-08-06T11:30:26;3.00;;;2.50;;
4700;SDS011;8724;51.272;6.554;2023-08-06T11:32:56;3.70;;;2.37;;
4700;SDS011;8724;51.272;6.554;2023-08-06T11:35:25;3.63;;;2.67;;
4700;SDS011;8724;51.272;6.554;2023-08-06T11:37:53;3.93;;;3.03;;
4700;SDS011;8724;51.272;6.554;2023-08-06T11:40:23;3.20;;;2.90;;
4700;SDS011;8724;51.272;6.554;2023-08-06T11:42:52;6.07;;;3.17;;
4700;SDS011;8724;51.272;6.554;2023-08-06T11:45:21;3.80;;;3.30;;
4700;SDS011;8724;51.272;6.554;2023-08-06T11:47:50;2.80;;;2.50;;
4700;SDS011;8724;51.272;6.554;2023-08-06T11:50:23;4.60;;;2.97;;
4700;SDS011;8724;51.272;6.554;2023-08-06T11:52:56;4.80;;;2.30;;
4700;SDS011;8724;51.272;6.554;2023-08-06T11:55:28;3.50;;;2.70;;
4700;SDS011;8724;51.272;6.554;2023-08-06T11:57:57;4.63;;;2.90;;
4700;SDS011;8724;51.272;6.554;2023-08-06T12:00:26;3.33;;;3.03;;
4700;SDS011;8724;51.272;6.554;2023-08-06T12:02:54;4.47;;;2.70;;
4700;SDS011;8724;51.272;6.554;2023-08-06T12:05:28;2.93;;;2.63;;
4700;SDS011;8724;51.272;6.554;2023-08-06T12:08:00;4.63;;;2.93;;
4700;SDS011;8724;51.272;6.554;2023-08-06T12:10:31;2.63;;;2.43;;
4700;SDS011;8724;51.272;6.554;2023-08-06T12:13:00;3.30;;;2.53;;
4700;SDS011;8724;51.272;6.554;2023-08-06T12:15:29;2.40;;;2.20;;
4700;SDS011;8724;51.272;6.554;2023-08-06T12:17:59;3.10;;;2.80;;
4700;SDS011;8724;51.272;6.554;2023-08-06T12:20:28;3.20;;;2.90;;
4700;SDS011;8724;51.272;6.554;2023-08-06T12:22:56;4.10;;;2.73;;
4700;SDS011;8724;51.272;6.554;2023-08-06T12:25:25;5.47;;;3.07;;
4700;SDS011;8724;51.272;6.554;2023-08-06T12:27:55;2.60;;;2.40;;
4700;SDS011;8724;51.272;6.554;2023-08-06T12:30:24;4.17;;;2.40;;
4700;SDS011;8724;51.272;6.554;2023-08-06T12:32:53;1.87;;;1.77;;
4700;SDS011;8724;51.272;6.554;2023-08-06T12:35:21;3.60;;;2.67;;
4700;SDS011;8724;51.272;6.554;2023-08-06T12:37:52;4.93;;;2.50;;
4700;SDS011;8724;51.272;6.554;2023-08-06T12:40:21;2.77;;;2.10;;
4700;SDS011;8724;51.272;6.554;2023-08-06T12:43:04;2.70;;;2.50;;
4700;SDS011;8724;51.272;6.554;2023-08-06T12:45:32;2.83;;;2.27;;
4700;SDS011;8724;51.272;6.554;2023-08-06T12:48:01;3.67;;;2.00;;
4700;SDS011;8724;51.272;6.554;2023-08-06T12:50:30;2.00;;;1.90;;
4700;SDS011;8724;51.272;6.554;2023-08-06T12:53:00;2.53;;;2.17;;
4700;SDS011;8724;51.272;6.554;2023-08-06T12:55:29;2.17;;;2.07;;
4700;SDS011;8724;51.272;6.554;2023-08-06T12:57:59;6.00;;;1.63;;
4700;SDS011;8724;51.272;6.554;2023-08-06T13:00:29;1.93;;;1.80;;
4700;SDS011;8724;51.272;6.554;2023-08-06T13:02:57;2.50;;;2.30;;
4700;SDS011;8724;51.272;6.554;2023-08-06T13:05:26;2.33;;;1.90;;
4700;SDS011;8724;51.272;6.554;2023-08-06T13:07:55;2.87;;;2.40;;
4700;SDS011;8724;51.272;6.554;2023-08-06T13:10:23;2.27;;;2.07;;
4700;SDS011;8724;51.272;6.554;2023-08-06T13:12:54;5.93;;;2.57;;
4700;SDS011;8724;51.272;6.554;2023-08-06T13:15:22;3.20;;;2.90;;
4700;SDS011;8724;51.272;6.554;2023-08-06T13:17:52;3.13;;;2.20;;
4700;SDS011;8724;51.272;6.554;2023-08-06T13:20:20;3.17;;;2.03;;
4700;SDS011;8724;51.272;6.554;2023-08-06T13:22:49;3.33;;;2.20;;
4700;SDS011;8724;51.272;6.554;2023-08-06T13:25:20;4.37;;;2.70;;
4700;SDS011;8724;51.272;6.554;2023-08-06T13:27:48;2.67;;;2.30;;
4700;SDS011;8724;51.272;6.554;2023-08-06T13:30:16;2.97;;;2.57;;
4700;SDS011;8724;51.272;6.554;2023-08-06T13:32:45;3.90;;;2.83;;
4700;SDS011;8724;51.272;6.554;2023-08-06T13:35:15;3.27;;;2.17;;
4700;SDS011;8724;51.272;6.554;2023-08-06T13:37:44;2.43;;;2.10;;
4700;SDS011;8724;51.272;6.554;2023-08-06T13:40:14;3.10;;;2.40;;
4700;SDS011;8724;51.272;6.554;2023-08-06T13:42:43;2.70;;;2.33;;
4700;SDS011;8724;51.272;6.554;2023-08-06T13:45:12;4.10;;;2.60;;
4700;SDS011;8724;51.272;6.554;2023-08-06T13:47:40;3.50;;;2.80;;
4700;SDS011;8724;51.272;6.554;2023-08-06T13:50:09;3.20;;;2.27;;
4700;SDS011;8724;51.272;6.554;2023-08-06T13:52:39;5.20;;;2.47;;
4700;SDS011;8724;51.272;6.554;2023-08-06T13:55:08;4.67;;;3.27;;
4700;SDS011;8724;51.272;6.554;2023-08-06T13:57:37;3.17;;;2.83;;
4700;SDS011;8724;51.272;6.554;2023-08-06T14:00:06;3.30;;;2.50;;
4700;SDS011;8724;51.272;6.554;2023-08-06T14:02:38;3.50;;;3.20;;
4700;SDS011;8724;51.272;6.554;2023-08-06T14:05:06;2.90;;;2.60;;
4700;SDS011;8724;51.272;6.554;2023-08-06T14:07:35;3.00;;;2.53;;
4700;SDS011;8724;51.272;6.554;2023-08-06T14:10:06;4.03;;;3.10;;
4700;SDS011;8724;51.272;6.554;2023-08-06T14:12:35;5.23;;;3.43;;
4700;SDS011;8724;51.272;6.554;2023-08-06T14:15:04;2.83;;;2.63;;
4700;SDS011;8724;51.272;6.554;2023-08-06T14:17:33;2.23;;;2.13;;
4700;SDS011;8724;51.272;6.554;2023-08-06T14:20:02;4.17;;;2.90;;
4700;SDS011;8724;51.272;6.554;2023-08-06T14:22:31;4.67;;;2.43;;
4700;SDS011;8724;51.272;6.554;2023-08-06T14:25:00;5.10;;;2.70;;
4700;SDS011;8724;51.272;6.554;2023-08-06T14:27:30;3.07;;;2.87;;
4700;SDS011;8724;51.272;6.554;2023-08-06T14:29:58;4.13;;;2.97;;
4700;SDS011;8724;51.272;6.554;2023-08-06T14:32:29;3.80;;;2.33;;
4700;SDS011;8724;51.272;6.554;2023-08-06T14:34:58;2.50;;;2.30;;
4700;SDS011;8724;51.272;6.554;2023-08-06T14:37:26;6.13;;;2.87;;
4700;SDS011;8724;51.272;6.554;2023-08-06T14:39:55;5.23;;;3.10;;
4700;SDS011;8724;51.272;6.554;2023-08-06T14:42:24;4.63;;;3.00;;
4700;SDS011;8724;51.272;6.554;2023-08-06T14:44:54;4.73;;;2.40;;
4700;SDS011;8724;51.272;6.554;2023-08-06T14:47:22;5.13;;;2.57;;
4700;SDS011;8724;51.272;6.554;2023-08-06T14:49:51;5.43;;;2.43;;
4700;SDS011;8724;51.272;6.554;2023-08-06T14:52:19;4.67;;;2.80;;
4700;SDS011;8724;51.272;6.554;2023-08-06T14:54:48;3.50;;;2.67;;
4700;SDS011;8724;51.272;6.554;2023-08-06T14:57:18;3.73;;;2.67;;
4700;SDS011;8724;51.272;6.554;2023-08-06T14:59:48;2.90;;;2.60;;
4700;SDS011;8724;51.272;6.554;2023-08-06T15:02:18;4.20;;;3.23;;
4700;SDS011;8724;51.272;6.554;2023-08-06T15:04:47;4.37;;;2.30;;
4700;SDS011;8724;51.272;6.554;2023-08-06T15:07:16;3.47;;;2.67;;
4700;SDS011;8724;51.272;6.554;2023-08-06T15:09:45;5.53;;;2.53;;
4700;SDS011;8724;51.272;6.554;2023-08-06T15:12:33;2.80;;;2.60;;
4700;SDS011;8724;51.272;6.554;2023-08-06T15:15:02;1.77;;;1.57;;
4700;SDS011;8724;51.272;6.554;2023-08-06T15:17:32;4.03;;;2.63;;
4700;SDS011;8724;51.272;6.554;2023-08-06T15:20:01;3.43;;;2.30;;
4700;SDS011;8724;51.272;6.554;2023-08-06T15:22:29;2.83;;;2.23;;
4700;SDS011;8724;51.272;6.554;2023-08-06T15:24:59;3.20;;;2.20;;
4700;SDS011;8724;51.272;6.554;2023-08-06T15:27:28;3.23;;;2.30;;
4700;SDS011;8724;51.272;6.554;2023-08-06T15:29:57;2.10;;;1.93;;
4700;SDS011;8724;51.272;6.554;2023-08-06T15:32:25;2.63;;;2.43;;
4700;SDS011;8724;51.272;6.554;2023-08-06T15:34:55;3.60;;;2.40;;